createdAt,value
2017-09-07T00:00:05.300Z,1.9
2017-09-07T00:01:07.691Z,1.9
2017-09-07T00:02:10.079Z,1.9
2017-09-07T00:03:12.473Z,1.9
2017-09-07T00:04:14.871Z,1.9
2017-09-07T00:05:17.262Z,2
2017-09-07T00:06:19.651Z,1.9
2017-09-07T00:07:22.042Z,1.9
2017-09-07T00:08:24.438Z,1.9
2017-09-07T00:09:26.830Z,1.9
2017-09-07T00:10:29.228Z,1.9
2017-09-07T00:11:31.612Z,1.9
2017-09-07T00:12:34.343Z,1.8
2017-09-07T00:13:36.744Z,1.9
2017-09-07T00:14:39.136Z,1.9
2017-09-07T00:15:41.529Z,1.9
2017-09-07T00:16:43.921Z,1.9
2017-09-07T00:17:46.312Z,1.9
2017-09-07T00:18:48.707Z,1.9
2017-09-07T00:19:51.106Z,1.9
2017-09-07T00:20:53.510Z,1.9
2017-09-07T00:21:55.900Z,1.8
2017-09-07T00:22:58.288Z,1.9
2017-09-07T00:24:00.682Z,1.7
2017-09-07T00:25:03.426Z,1.9
2017-09-07T00:26:05.815Z,1.8
2017-09-07T00:27:08.205Z,1.8
2017-09-07T00:28:10.605Z,1.8
2017-09-07T00:29:12.998Z,1.9
2017-09-07T00:30:15.390Z,1.9
2017-09-07T00:31:17.781Z,1.9
2017-09-07T00:32:20.175Z,1.8
2017-09-07T00:33:22.563Z,1.9
2017-09-07T00:34:24.960Z,1.9
2017-09-07T00:35:27.343Z,1.9
2017-09-07T00:36:29.738Z,1.9
2017-09-07T00:37:32.133Z,1.9
2017-09-07T00:38:34.525Z,1.9
2017-09-07T00:39:36.918Z,1.9
2017-09-07T00:40:39.309Z,1.6
2017-09-07T00:41:41.700Z,1.9
2017-09-07T00:42:44.093Z,1.9
2017-09-07T00:43:46.482Z,1.9
2017-09-07T00:44:48.877Z,1.9
2017-09-07T00:45:51.267Z,1.9
2017-09-07T00:46:54.004Z,1.9
2017-09-07T00:47:56.393Z,1.8
2017-09-07T00:48:59.127Z,1.8
2017-09-07T00:50:01.513Z,1.9
2017-09-07T00:51:03.905Z,1.7
2017-09-07T00:52:06.295Z,1.8
2017-09-07T00:53:08.689Z,1.8
2017-09-07T00:54:11.081Z,1.9
2017-09-07T00:55:13.472Z,1.8
2017-09-07T00:56:15.851Z,1.8
2017-09-07T00:57:18.244Z,1.8
2017-09-07T00:58:20.636Z,1.8
2017-09-07T00:59:23.033Z,1.9
2017-09-07T01:00:25.424Z,1.9
2017-09-07T01:01:27.818Z,1.8
2017-09-07T01:02:30.212Z,1.8
2017-09-07T01:03:32.608Z,1.9
2017-09-07T01:04:34.996Z,1.9
2017-09-07T01:05:37.724Z,1.9
2017-09-07T01:06:40.111Z,1.9
2017-09-07T01:07:42.503Z,1.9
2017-09-07T01:08:44.891Z,1.9
2017-09-07T01:09:47.288Z,1.8
2017-09-07T01:10:49.677Z,1.9
2017-09-07T01:11:52.069Z,1.8
2017-09-07T01:12:54.465Z,1.9
2017-09-07T01:13:56.852Z,1.9
2017-09-07T01:14:59.240Z,1.8
2017-09-07T01:16:01.629Z,1.8
2017-09-07T01:17:04.021Z,1.7
2017-09-07T01:18:06.413Z,1.9
2017-09-07T01:19:08.815Z,1.9
2017-09-07T01:20:11.198Z,1.9
2017-09-07T01:21:13.596Z,1.9
2017-09-07T01:22:16.349Z,1.9
2017-09-07T01:23:18.738Z,1.7
2017-09-07T01:24:21.130Z,1.8
2017-09-07T01:25:23.515Z,1.8
2017-09-07T01:26:25.902Z,1.9
2017-09-07T01:27:28.306Z,1.9
2017-09-07T01:28:30.691Z,1.9
2017-09-07T01:29:33.082Z,1.8
2017-09-07T01:30:35.469Z,1.9
2017-09-07T01:31:37.861Z,1.8
2017-09-07T01:32:40.254Z,1.9
2017-09-07T01:33:42.653Z,1.8
2017-09-07T01:34:45.037Z,1.8
2017-09-07T01:35:47.428Z,1.8
2017-09-07T01:36:49.825Z,1.9
2017-09-07T01:37:52.222Z,1.9
2017-09-07T01:38:54.614Z,1.9
2017-09-07T01:39:57.006Z,1.9
2017-09-07T01:40:59.400Z,1.9
2017-09-07T01:42:01.788Z,1.8
2017-09-07T01:43:04.176Z,1.8
2017-09-07T01:44:06.580Z,1.8
2017-09-07T01:45:08.977Z,1.9
2017-09-07T01:46:11.365Z,1.9
2017-09-07T01:47:13.762Z,1.8
2017-09-07T01:48:16.160Z,1.8
2017-09-07T01:49:18.554Z,1.8
2017-09-07T01:50:20.949Z,1.9
2017-09-07T01:51:23.336Z,1.8
2017-09-07T01:52:25.721Z,1.8
2017-09-07T01:53:28.119Z,1.8
2017-09-07T01:54:30.506Z,1.8
2017-09-07T01:55:32.893Z,1.9
2017-09-07T01:56:35.285Z,1.8
2017-09-07T01:57:37.672Z,1.9
2017-09-07T01:58:40.073Z,1.9
2017-09-07T01:59:42.472Z,1.9
2017-09-07T02:00:44.861Z,1.9
2017-09-07T02:01:47.251Z,1.9
2017-09-07T02:02:49.642Z,1.9
2017-09-07T02:03:52.037Z,1.8
2017-09-07T02:04:54.430Z,1.9
2017-09-07T02:05:56.820Z,1.9
2017-09-07T02:06:59.212Z,1.7
2017-09-07T02:08:01.611Z,1.9
2017-09-07T02:09:04.004Z,1.8
2017-09-07T02:10:06.391Z,1.9
2017-09-07T02:11:08.781Z,1.8
2017-09-07T02:12:11.173Z,1.9
2017-09-07T02:13:13.562Z,1.9
2017-09-07T02:14:15.957Z,1.8
2017-09-07T02:15:18.353Z,1.9
2017-09-07T02:16:20.745Z,1.9
2017-09-07T02:17:23.133Z,1.9
2017-09-07T02:18:25.873Z,1.9
2017-09-07T02:19:28.257Z,1.8
2017-09-07T02:20:30.652Z,1.9
2017-09-07T02:21:33.046Z,1.9
2017-09-07T02:22:35.438Z,1.8
2017-09-07T02:23:37.828Z,1.8
2017-09-07T02:24:40.224Z,1.8
2017-09-07T02:25:42.615Z,1.9
2017-09-07T02:26:45.007Z,1.9
2017-09-07T02:27:47.394Z,1.8
2017-09-07T02:28:49.786Z,1.9
2017-09-07T02:29:52.177Z,1.9
2017-09-07T02:30:54.571Z,1.8
2017-09-07T02:31:56.956Z,1.9
2017-09-07T02:32:59.355Z,1.8
2017-09-07T02:34:01.748Z,1.9
2017-09-07T02:35:04.147Z,1.8
2017-09-07T02:36:06.543Z,1.8
2017-09-07T02:37:08.935Z,1.9
2017-09-07T02:38:11.322Z,1.8
2017-09-07T02:39:13.717Z,1.8
2017-09-07T02:40:16.103Z,1.8
2017-09-07T02:41:18.500Z,1.8
2017-09-07T02:42:20.897Z,1.8
2017-09-07T02:43:23.280Z,1.8
2017-09-07T02:44:25.673Z,1.8
2017-09-07T02:45:28.062Z,1.8
2017-09-07T02:46:30.454Z,1.8
2017-09-07T02:47:32.843Z,1.8
2017-09-07T02:48:35.233Z,1.8
2017-09-07T02:49:37.625Z,1.8
2017-09-07T02:50:40.020Z,1.8
2017-09-07T02:51:42.416Z,1.8
2017-09-07T02:52:44.808Z,1.8
2017-09-07T02:53:47.202Z,1.8
2017-09-07T02:54:49.594Z,1.8
2017-09-07T02:55:51.990Z,1.8
2017-09-07T02:56:54.383Z,1.8
2017-09-07T02:57:56.768Z,1.8
2017-09-07T02:58:59.162Z,1.8
2017-09-07T03:00:01.555Z,1.8
2017-09-07T03:01:03.947Z,1.8
2017-09-07T03:02:06.339Z,1.8
2017-09-07T03:03:09.087Z,1.8
2017-09-07T03:04:11.458Z,1.8
2017-09-07T03:05:13.855Z,1.8
2017-09-07T03:06:16.246Z,1.8
2017-09-07T03:07:18.628Z,1.8
2017-09-07T03:08:21.023Z,1.8
2017-09-07T03:09:23.414Z,1.8
2017-09-07T03:10:25.805Z,1.8
2017-09-07T03:11:28.195Z,1.8
2017-09-07T03:12:30.589Z,1.8
2017-09-07T03:13:32.979Z,1.8
2017-09-07T03:14:35.369Z,1.8
2017-09-07T03:15:37.752Z,1.8
2017-09-07T03:16:40.153Z,1.8
2017-09-07T03:17:42.543Z,1.8
2017-09-07T03:18:44.938Z,1.8
2017-09-07T03:19:47.325Z,1.8
2017-09-07T03:20:49.717Z,1.8
2017-09-07T03:21:52.116Z,1.8
2017-09-07T03:22:54.513Z,1.8
2017-09-07T03:23:56.900Z,1.7
2017-09-07T03:24:59.295Z,1.8
2017-09-07T03:26:01.681Z,1.8
2017-09-07T03:27:05.085Z,1.8
2017-09-07T03:28:07.475Z,1.8
2017-09-07T03:29:09.865Z,1.8
2017-09-07T03:30:12.253Z,1.8
2017-09-07T03:31:14.655Z,1.8
2017-09-07T03:32:17.044Z,1.8
2017-09-07T03:33:19.443Z,1.8
2017-09-07T03:34:21.831Z,1.8
2017-09-07T03:35:24.226Z,1.8
2017-09-07T03:36:26.618Z,1.8
2017-09-07T03:37:29.011Z,1.8
2017-09-07T03:38:31.395Z,1.7
2017-09-07T03:39:33.778Z,1.8
2017-09-07T03:40:36.172Z,1.8
2017-09-07T03:41:38.560Z,1.7
2017-09-07T03:42:40.947Z,1.8
2017-09-07T03:43:43.341Z,1.8
2017-09-07T03:44:46.069Z,1.7
2017-09-07T03:45:48.464Z,1.8
2017-09-07T03:46:50.855Z,1.8
2017-09-07T03:47:53.247Z,1.6
2017-09-07T03:48:55.647Z,1.8
2017-09-07T03:49:58.377Z,1.8
2017-09-07T03:51:00.772Z,1.8
2017-09-07T03:52:03.165Z,1.7
2017-09-07T03:53:05.558Z,1.8
2017-09-07T03:54:07.945Z,1.8
2017-09-07T03:55:10.694Z,1.8
2017-09-07T03:56:13.083Z,1.7
2017-09-07T03:57:15.476Z,1.8
2017-09-07T03:58:17.870Z,1.8
2017-09-07T03:59:20.608Z,1.8
2017-09-07T04:00:23.000Z,1.8
2017-09-07T04:01:25.393Z,1.8
2017-09-07T04:02:27.777Z,1.8
2017-09-07T04:03:30.170Z,1.8
2017-09-07T04:04:32.563Z,1.8
2017-09-07T04:05:35.316Z,1.8
2017-09-07T04:06:37.681Z,1.8
2017-09-07T04:07:40.078Z,1.8
2017-09-07T04:08:42.470Z,1.8
2017-09-07T04:09:44.867Z,1.8
2017-09-07T04:10:47.257Z,1.8
2017-09-07T04:11:49.652Z,1.8
2017-09-07T04:12:52.050Z,1.8
2017-09-07T04:13:54.434Z,1.8
2017-09-07T04:14:56.827Z,1.8
2017-09-07T04:15:59.224Z,1.8
2017-09-07T04:17:01.614Z,1.9
2017-09-07T04:18:04.008Z,1.8
2017-09-07T04:19:06.401Z,1.8
2017-09-07T04:20:08.794Z,1.9
2017-09-07T04:21:11.543Z,1.8
2017-09-07T04:22:13.936Z,1.8
2017-09-07T04:23:16.318Z,1.8
2017-09-07T04:24:18.714Z,1.8
2017-09-07T04:25:21.109Z,1.8
2017-09-07T04:26:23.509Z,1.8
2017-09-07T04:27:25.905Z,1.8
2017-09-07T04:28:28.292Z,1.8
2017-09-07T04:29:30.682Z,1.8
2017-09-07T04:30:33.079Z,1.7
2017-09-07T04:31:35.469Z,1.8
2017-09-07T04:32:38.210Z,1.8
2017-09-07T04:33:40.598Z,1.8
2017-09-07T04:34:42.992Z,1.8
2017-09-07T04:35:45.388Z,1.8
2017-09-07T04:36:47.785Z,1.8
2017-09-07T04:37:50.169Z,1.8
2017-09-07T04:38:52.567Z,1.8
2017-09-07T04:39:54.966Z,1.8
2017-09-07T04:40:57.356Z,1.8
2017-09-07T04:41:59.749Z,1.8
2017-09-07T04:43:02.144Z,1.7
2017-09-07T04:44:04.540Z,1.8
2017-09-07T04:45:06.925Z,1.8
2017-09-07T04:46:09.323Z,1.8
2017-09-07T04:47:11.713Z,1.8
2017-09-07T04:48:14.112Z,1.7
2017-09-07T04:49:16.507Z,1.8
2017-09-07T04:50:18.897Z,1.8
2017-09-07T04:51:21.285Z,1.8
2017-09-07T04:52:23.682Z,1.8
2017-09-07T04:53:26.069Z,1.8
2017-09-07T04:54:28.487Z,1.8
2017-09-07T04:55:30.858Z,1.8
2017-09-07T04:56:33.253Z,1.8
2017-09-07T04:57:35.641Z,1.8
2017-09-07T04:58:38.035Z,1.8
2017-09-07T04:59:40.421Z,1.8
2017-09-07T05:00:42.815Z,1.8
2017-09-07T05:01:45.207Z,1.8
2017-09-07T05:02:47.598Z,1.7
2017-09-07T05:03:49.991Z,1.8
2017-09-07T05:04:52.727Z,1.8
2017-09-07T05:05:55.114Z,1.8
2017-09-07T05:06:57.510Z,1.8
2017-09-07T05:07:59.907Z,1.8
2017-09-07T05:09:02.636Z,1.8
2017-09-07T05:10:05.362Z,1.8
2017-09-07T05:11:07.759Z,1.8
2017-09-07T05:12:10.484Z,1.7
2017-09-07T05:13:12.874Z,1.7
2017-09-07T05:14:15.271Z,1.8
2017-09-07T05:15:17.664Z,1.8
2017-09-07T05:16:20.053Z,1.8
2017-09-07T05:17:22.448Z,1.8
2017-09-07T05:18:24.834Z,1.7
2017-09-07T05:19:27.226Z,1.8
2017-09-07T05:20:29.621Z,1.7
2017-09-07T05:21:32.012Z,1.8
2017-09-07T05:22:34.399Z,1.8
2017-09-07T05:23:36.794Z,1.8
2017-09-07T05:24:39.189Z,1.7
2017-09-07T05:25:41.575Z,1.8
2017-09-07T05:26:43.969Z,1.8
2017-09-07T05:27:46.357Z,1.8
2017-09-07T05:28:48.748Z,1.8
2017-09-07T05:29:51.147Z,1.8
2017-09-07T05:30:53.536Z,1.8
2017-09-07T05:31:55.929Z,1.8
2017-09-07T05:32:58.324Z,1.8
2017-09-07T05:34:00.714Z,1.8
2017-09-07T05:35:03.794Z,1.8
2017-09-07T05:36:06.191Z,1.8
2017-09-07T05:37:08.576Z,1.8
2017-09-07T05:38:10.973Z,1.8
2017-09-07T05:39:13.367Z,1.8
2017-09-07T05:40:15.762Z,1.7
2017-09-07T05:41:18.152Z,1.8
2017-09-07T05:42:20.550Z,1.8
2017-09-07T05:43:22.948Z,1.8
2017-09-07T05:44:25.344Z,1.8
2017-09-07T05:45:27.741Z,1.8
2017-09-07T05:46:30.127Z,1.8
2017-09-07T05:47:32.521Z,1.7
2017-09-07T05:48:35.251Z,1.8
2017-09-07T05:49:37.640Z,1.8
2017-09-07T05:50:40.027Z,1.6
2017-09-07T05:51:42.417Z,1.8
2017-09-07T05:52:44.806Z,1.8
2017-09-07T05:53:47.199Z,1.8
2017-09-07T05:54:49.590Z,1.8
2017-09-07T05:55:51.981Z,1.8
2017-09-07T05:56:54.375Z,1.8
2017-09-07T05:57:56.779Z,1.6
2017-09-07T05:58:59.170Z,1.7
2017-09-07T06:00:01.565Z,1.7
2017-09-07T06:01:03.955Z,1.9
2017-09-07T06:02:06.343Z,1.9
2017-09-07T06:03:09.085Z,1.8
2017-09-07T06:04:11.473Z,1.8
2017-09-07T06:05:14.204Z,1.7
2017-09-07T06:06:16.943Z,1.8
2017-09-07T06:07:19.685Z,1.8
2017-09-07T06:08:22.070Z,1.9
2017-09-07T06:09:24.464Z,1.9
2017-09-07T06:10:26.867Z,1.6
2017-09-07T06:11:29.257Z,1.7
2017-09-07T06:12:31.655Z,1.9
2017-09-07T06:13:34.048Z,1.9
2017-09-07T06:14:36.432Z,1.9
2017-09-07T06:15:38.836Z,1.7
2017-09-07T06:16:41.591Z,1.9
2017-09-07T06:17:43.974Z,1.9
2017-09-07T06:18:46.368Z,1.9
2017-09-07T06:19:48.764Z,1.8
2017-09-07T06:20:51.153Z,1.9
2017-09-07T06:21:53.541Z,1.8
2017-09-07T06:22:55.935Z,1.8
2017-09-07T06:23:58.329Z,1.9
2017-09-07T06:25:00.727Z,1.9
2017-09-07T06:26:03.122Z,1.8
2017-09-07T06:27:05.524Z,1.9
2017-09-07T06:28:07.915Z,1.9
2017-09-07T06:29:10.308Z,1.9
2017-09-07T06:30:12.699Z,1.9
2017-09-07T06:31:15.095Z,1.9
2017-09-07T06:32:17.488Z,2
2017-09-07T06:33:19.887Z,1.9
2017-09-07T06:34:22.283Z,1.9
2017-09-07T06:35:24.685Z,2
2017-09-07T06:36:27.075Z,1.8
2017-09-07T06:37:29.481Z,2
2017-09-07T06:38:31.876Z,2
2017-09-07T06:39:34.270Z,2
2017-09-07T06:40:36.665Z,2
2017-09-07T06:41:39.056Z,2
2017-09-07T06:42:41.454Z,2
2017-09-07T06:43:43.853Z,2
2017-09-07T06:44:46.246Z,2
2017-09-07T06:45:48.644Z,2.1
2017-09-07T06:46:51.042Z,2
2017-09-07T06:47:53.439Z,2
2017-09-07T06:48:55.840Z,2
2017-09-07T06:49:58.240Z,2.1
2017-09-07T06:51:00.626Z,2.1
2017-09-07T06:52:03.032Z,2.1
2017-09-07T06:53:05.423Z,2.1
2017-09-07T06:54:07.819Z,2.1
2017-09-07T06:55:10.213Z,2.1
2017-09-07T06:56:12.605Z,2.1
2017-09-07T06:57:15.003Z,2.1
2017-09-07T06:58:17.402Z,2.2
2017-09-07T06:59:19.796Z,2.1
2017-09-07T07:00:22.189Z,2.2
2017-09-07T07:01:24.587Z,2.2
2017-09-07T07:02:26.980Z,2.2
2017-09-07T07:03:29.378Z,2.2
2017-09-07T07:04:31.782Z,2.2
2017-09-07T07:05:34.178Z,2.2
2017-09-07T07:06:36.573Z,2.2
2017-09-07T07:07:38.977Z,2.2
2017-09-07T07:08:41.380Z,2.2
2017-09-07T07:09:43.777Z,2.2
2017-09-07T07:10:46.180Z,2.2
2017-09-07T07:11:48.579Z,1.9
2017-09-07T07:12:51.313Z,2.2
2017-09-07T07:13:53.716Z,2.2
2017-09-07T07:14:56.101Z,2.2
2017-09-07T07:15:58.506Z,2.2
2017-09-07T07:17:00.902Z,2.2
2017-09-07T07:18:03.301Z,2.3
2017-09-07T07:19:05.697Z,2.2
2017-09-07T07:20:08.091Z,2.3
2017-09-07T07:21:10.494Z,2.3
2017-09-07T07:22:13.247Z,2.3
2017-09-07T07:23:15.649Z,2.3
2017-09-07T07:24:18.044Z,2.3
2017-09-07T07:25:20.433Z,2.3
2017-09-07T07:26:22.838Z,2.3
2017-09-07T07:27:25.232Z,2.3
2017-09-07T07:28:27.626Z,2.3
2017-09-07T07:29:30.022Z,2.3
2017-09-07T07:30:32.417Z,2.3
2017-09-07T07:31:34.815Z,2.3
2017-09-07T07:32:37.214Z,2.3
2017-09-07T07:33:39.607Z,2.3
2017-09-07T07:34:42.006Z,2.3
2017-09-07T07:35:44.422Z,2.3
2017-09-07T07:36:46.817Z,2.3
2017-09-07T07:37:49.209Z,2.3
2017-09-07T07:38:51.612Z,2.3
2017-09-07T07:39:54.005Z,2.3
2017-09-07T07:40:56.399Z,2.3
2017-09-07T07:41:58.786Z,2.3
2017-09-07T07:43:01.186Z,2.3
2017-09-07T07:44:03.583Z,2.3
2017-09-07T07:45:05.979Z,2.3
2017-09-07T07:46:08.387Z,2.3
2017-09-07T07:47:10.787Z,2.3
2017-09-07T07:48:13.188Z,2.3
2017-09-07T07:49:15.589Z,2.4
2017-09-07T07:50:17.983Z,2.3
2017-09-07T07:51:20.746Z,2.4
2017-09-07T07:52:23.136Z,2.3
2017-09-07T07:53:25.542Z,2.4
2017-09-07T07:54:27.943Z,2.3
2017-09-07T07:55:30.345Z,2.3
2017-09-07T07:56:32.742Z,2.3
2017-09-07T07:57:35.142Z,2.3
2017-09-07T07:58:37.533Z,2.4
2017-09-07T07:59:39.938Z,2.4
2017-09-07T08:00:42.336Z,2.4
2017-09-07T08:01:44.732Z,2.3
2017-09-07T08:02:47.135Z,2.3
2017-09-07T08:03:49.872Z,2.3
2017-09-07T08:04:52.268Z,2.4
2017-09-07T08:05:54.663Z,2.4
2017-09-07T08:06:57.064Z,2.4
2017-09-07T08:07:59.460Z,2.4
2017-09-07T08:09:01.856Z,2.4
2017-09-07T08:10:04.260Z,2.3
2017-09-07T08:11:06.660Z,2.4
2017-09-07T08:12:09.057Z,2.4
2017-09-07T08:13:11.805Z,2.4
2017-09-07T08:14:14.196Z,2.4
2017-09-07T08:15:16.596Z,2.4
2017-09-07T08:16:19.000Z,2.4
2017-09-07T08:17:21.401Z,2.4
2017-09-07T08:18:24.149Z,2.3
2017-09-07T08:19:26.549Z,2.3
2017-09-07T08:20:28.946Z,2.4
2017-09-07T08:21:31.352Z,2.4
2017-09-07T08:22:33.752Z,2.3
2017-09-07T08:23:36.142Z,2.3
2017-09-07T08:24:38.551Z,2.3
2017-09-07T08:25:41.295Z,2.3
2017-09-07T08:26:43.688Z,2.3
2017-09-07T08:27:46.091Z,2.3
2017-09-07T08:28:48.488Z,2.3
2017-09-07T08:29:50.883Z,2.3
2017-09-07T08:30:53.623Z,2.3
2017-09-07T08:31:56.017Z,2.3
2017-09-07T08:32:58.408Z,2.3
2017-09-07T08:34:00.812Z,2.2
2017-09-07T08:35:03.210Z,2.3
2017-09-07T08:36:05.605Z,2.2
2017-09-07T08:37:08.003Z,2.3
2017-09-07T08:38:10.401Z,2.3
2017-09-07T08:39:12.794Z,2.3
2017-09-07T08:40:15.200Z,2.3
2017-09-07T08:41:17.597Z,2.2
2017-09-07T08:42:21.203Z,2.3
2017-09-07T08:43:23.981Z,2.3
2017-09-07T08:44:26.381Z,2.3
2017-09-07T08:45:28.774Z,2.3
2017-09-07T08:46:31.172Z,2.3
2017-09-07T08:47:33.782Z,2.3
2017-09-07T08:48:36.176Z,2.3
2017-09-07T08:49:38.580Z,2.3
2017-09-07T08:50:40.972Z,2.3
2017-09-07T08:51:43.370Z,2.3
2017-09-07T08:52:46.205Z,2.4
2017-09-07T08:53:48.598Z,2.3
2017-09-07T08:54:51.003Z,2.3
2017-09-07T08:55:53.402Z,2.3
2017-09-07T08:57:14.547Z,2.3
2017-09-07T08:58:17.805Z,2.4
2017-09-07T08:59:20.207Z,2.4
2017-09-07T09:00:23.288Z,2.4
2017-09-07T09:01:25.685Z,2.4
2017-09-07T09:02:28.078Z,2.4
2017-09-07T09:03:33.770Z,2.4
2017-09-07T09:04:38.087Z,2.4
2017-09-07T09:05:53.621Z,2.4
2017-09-07T09:07:03.172Z,2.5
2017-09-07T09:08:10.450Z,2.4
2017-09-07T09:09:13.169Z,2.5
2017-09-07T09:10:15.570Z,2.5
2017-09-07T09:11:17.974Z,2.4
2017-09-07T09:12:20.385Z,2.4
2017-09-07T09:13:22.784Z,2.4
2017-09-07T09:14:28.406Z,2.5
2017-09-07T09:15:30.875Z,2.4
2017-09-07T09:16:33.276Z,2.5
2017-09-07T09:17:35.674Z,2.4
2017-09-07T09:18:38.075Z,2.5
2017-09-07T09:19:40.491Z,2.5
2017-09-07T09:20:42.890Z,2.5
2017-09-07T09:21:45.279Z,2.5
2017-09-07T09:22:47.676Z,2.5
2017-09-07T09:23:50.074Z,2.5
2017-09-07T09:24:52.472Z,2.5
2017-09-07T09:25:54.870Z,2.5
2017-09-07T09:26:57.625Z,2.5
2017-09-07T09:28:00.028Z,2.5
2017-09-07T09:29:02.436Z,2.5
2017-09-07T09:30:05.171Z,2.5
2017-09-07T09:31:07.570Z,2.5
2017-09-07T09:32:09.971Z,2.5
2017-09-07T09:33:12.364Z,2.5
2017-09-07T09:34:14.765Z,2.5
2017-09-07T09:35:17.167Z,2.5
2017-09-07T09:36:19.564Z,2.5
2017-09-07T09:37:28.249Z,2.5
2017-09-07T09:38:35.109Z,2.5
2017-09-07T09:39:37.509Z,2.5
2017-09-07T09:40:39.908Z,2.5
2017-09-07T09:41:42.306Z,2.5
2017-09-07T09:42:44.705Z,2.5
2017-09-07T09:43:47.103Z,2.5
2017-09-07T09:44:49.600Z,2.5
2017-09-07T09:45:52.000Z,2.5
2017-09-07T09:46:54.734Z,2.5
2017-09-07T09:47:57.134Z,2.5
2017-09-07T09:48:59.528Z,2.5
2017-09-07T09:50:02.264Z,2.5
2017-09-07T09:51:04.662Z,2.5
2017-09-07T09:52:07.064Z,2.5
2017-09-07T09:53:09.794Z,2.5
2017-09-07T09:54:12.195Z,2.5
2017-09-07T09:55:14.594Z,2.5
2017-09-07T09:56:16.998Z,2.5
2017-09-07T09:57:19.392Z,2.6
2017-09-07T09:58:21.787Z,2.6
2017-09-07T09:59:24.530Z,2.5
2017-09-07T10:00:26.928Z,2.6
2017-09-07T10:01:29.327Z,2.6
2017-09-07T10:02:31.722Z,2.5
2017-09-07T10:03:34.124Z,2.6
2017-09-07T10:04:36.528Z,2.6
2017-09-07T10:05:38.930Z,2.6
2017-09-07T10:06:41.315Z,2.7
2017-09-07T10:07:43.720Z,2.6
2017-09-07T10:08:46.139Z,2.7
2017-09-07T10:09:48.540Z,2.7
2017-09-07T10:10:50.939Z,2.6
2017-09-07T10:11:53.338Z,2.7
2017-09-07T10:12:55.736Z,2.7
2017-09-07T10:13:58.141Z,2.7
2017-09-07T10:15:00.542Z,2.8
2017-09-07T10:16:02.939Z,2.8
2017-09-07T10:17:05.341Z,2.7
2017-09-07T10:18:07.749Z,2.8
2017-09-07T10:19:10.144Z,2.8
2017-09-07T10:20:12.549Z,2.9
2017-09-07T10:21:14.942Z,2.9
2017-09-07T10:22:17.346Z,2.9
2017-09-07T10:23:19.752Z,2.9
2017-09-07T10:24:22.154Z,2.9
2017-09-07T10:25:24.553Z,2.9
2017-09-07T10:26:26.950Z,2.9
2017-09-07T10:27:29.347Z,2.9
2017-09-07T10:28:31.757Z,2.9
2017-09-07T10:29:34.157Z,2.9
2017-09-07T10:30:36.555Z,2.9
2017-09-07T10:31:38.961Z,2.9
2017-09-07T10:32:41.365Z,3
2017-09-07T10:33:44.115Z,2.9
2017-09-07T10:34:46.500Z,2.9
2017-09-07T10:35:48.897Z,2.9
2017-09-07T10:36:51.294Z,2.9
2017-09-07T10:37:53.698Z,2.9
2017-09-07T10:38:56.102Z,2.9
2017-09-07T10:39:58.499Z,2.9
2017-09-07T10:41:00.907Z,2.9
2017-09-07T10:42:03.313Z,2.9
2017-09-07T10:43:05.715Z,2.9
2017-09-07T10:44:08.118Z,2.9
2017-09-07T10:45:10.520Z,2.9
2017-09-07T10:46:12.916Z,2.9
2017-09-07T10:47:15.326Z,2.9
2017-09-07T10:48:17.726Z,2.8
2017-09-07T10:49:20.124Z,2.9
2017-09-07T10:50:22.525Z,2.9
2017-09-07T10:51:24.928Z,2.9
2017-09-07T10:52:27.329Z,3
2017-09-07T10:53:29.733Z,3
2017-09-07T10:54:32.127Z,3
2017-09-07T10:55:34.532Z,3
2017-09-07T10:56:36.932Z,3.1
2017-09-07T10:57:39.335Z,3.1
2017-09-07T10:58:41.738Z,3.1
2017-09-07T10:59:44.140Z,3.2
2017-09-07T11:00:46.535Z,3.2
2017-09-07T11:01:48.945Z,3.2
2017-09-07T11:02:51.345Z,3.3
2017-09-07T11:03:53.745Z,3.3
2017-09-07T11:04:56.147Z,3.4
2017-09-07T11:05:58.550Z,3.4
2017-09-07T11:07:00.949Z,3.4
2017-09-07T11:08:03.355Z,3.5
2017-09-07T11:09:05.761Z,3.5
2017-09-07T11:10:08.173Z,3.5
2017-09-07T11:11:10.573Z,3.5
2017-09-07T11:12:12.985Z,3.5
2017-09-07T11:13:15.387Z,3.5
2017-09-07T11:14:17.793Z,3.5
2017-09-07T11:15:20.192Z,3.5
2017-09-07T11:16:22.935Z,3.5
2017-09-07T11:17:25.336Z,3.5
2017-09-07T11:18:27.745Z,3.5
2017-09-07T11:19:30.487Z,3.5
2017-09-07T11:20:33.228Z,3.4
2017-09-07T11:21:35.635Z,3.5
2017-09-07T11:22:38.042Z,3.5
2017-09-07T11:23:40.445Z,3.5
2017-09-07T11:24:43.193Z,3.5
2017-09-07T11:25:45.587Z,3.4
2017-09-07T11:26:47.993Z,3.5
2017-09-07T11:27:50.394Z,3.3
2017-09-07T11:28:53.475Z,3.3
2017-09-07T11:29:55.875Z,3.3
2017-09-07T11:30:58.620Z,3.4
2017-09-07T11:32:01.017Z,3.3
2017-09-07T11:33:03.429Z,3.4
2017-09-07T11:34:05.828Z,3.4
2017-09-07T11:35:08.229Z,3.5
2017-09-07T11:36:10.968Z,3.4
2017-09-07T11:37:13.381Z,3.4
2017-09-07T11:38:15.776Z,3.5
2017-09-07T11:39:18.177Z,3.5
2017-09-07T11:40:20.585Z,3.4
2017-09-07T11:41:22.987Z,3.5
2017-09-07T11:42:25.740Z,3.6
2017-09-07T11:43:28.150Z,3.7
2017-09-07T11:44:30.546Z,3.7
2017-09-07T11:45:32.954Z,3.7
2017-09-07T11:46:35.369Z,3.7
2017-09-07T11:47:37.772Z,3.7
2017-09-07T11:48:40.177Z,3.8
2017-09-07T11:49:42.579Z,3.7
2017-09-07T11:50:44.984Z,3.8
2017-09-07T11:51:47.402Z,3.7
2017-09-07T11:52:49.801Z,4.1
2017-09-07T11:53:52.203Z,3.8
2017-09-07T11:54:54.613Z,3.7
2017-09-07T11:55:57.019Z,3.7
2017-09-07T11:56:59.429Z,3.7
2017-09-07T11:58:01.838Z,3.6
2017-09-07T11:59:04.673Z,3.7
2017-09-07T12:00:07.087Z,3.7
2017-09-07T12:01:09.498Z,3.7
2017-09-07T12:02:11.896Z,3.6
2017-09-07T12:03:14.298Z,3.5
2017-09-07T12:04:16.705Z,3.6
2017-09-07T12:05:19.119Z,3.8
2017-09-07T12:06:21.530Z,3.7
2017-09-07T12:07:23.936Z,3.8
2017-09-07T12:08:26.340Z,3.5
2017-09-07T12:09:28.749Z,3.6
2017-09-07T12:10:31.145Z,3.6
2017-09-07T12:11:33.554Z,3.5
2017-09-07T12:12:35.956Z,3.5
2017-09-07T12:13:38.360Z,3.5
2017-09-07T12:14:41.101Z,3.5
2017-09-07T12:15:43.511Z,3.5
2017-09-07T12:16:45.911Z,3.5
2017-09-07T12:17:48.319Z,3.4
2017-09-07T12:18:50.716Z,3.5
2017-09-07T12:19:53.119Z,3.4
2017-09-07T12:20:55.522Z,3.4
2017-09-07T12:21:58.263Z,3.4
2017-09-07T12:23:00.663Z,3.4
2017-09-07T12:24:03.069Z,3.3
2017-09-07T12:25:05.469Z,3.2
2017-09-07T12:26:07.886Z,3.3
2017-09-07T12:27:10.281Z,3.4
2017-09-07T12:28:12.687Z,3.3
2017-09-07T12:29:15.090Z,3.3
2017-09-07T12:30:17.493Z,3.3
2017-09-07T12:31:19.891Z,3.3
2017-09-07T12:32:22.295Z,3.3
2017-09-07T12:33:24.695Z,3.2
2017-09-07T12:34:27.093Z,3.3
2017-09-07T12:35:29.501Z,3.3
2017-09-07T12:36:31.907Z,3.2
2017-09-07T12:37:34.315Z,3.3
2017-09-07T12:38:36.716Z,3.3
2017-09-07T12:39:39.460Z,3.2
2017-09-07T12:40:41.857Z,3.1
2017-09-07T12:41:44.267Z,3.5
2017-09-07T12:42:46.666Z,3.3
2017-09-07T12:43:49.402Z,3.2
2017-09-07T12:44:51.803Z,3.2
2017-09-07T12:45:54.518Z,3.2
2017-09-07T12:46:56.933Z,3.3
2017-09-07T12:47:59.341Z,3.3
2017-09-07T12:49:01.748Z,3.2
2017-09-07T12:50:04.145Z,3.3
2017-09-07T12:51:06.557Z,3.3
2017-09-07T12:52:08.962Z,3.2
2017-09-07T12:53:11.354Z,3.2
2017-09-07T12:54:13.760Z,3.2
2017-09-07T12:55:16.164Z,3.2
2017-09-07T12:56:18.568Z,3.2
2017-09-07T12:57:20.970Z,3.2
2017-09-07T12:58:23.712Z,3.1
2017-09-07T12:59:26.112Z,3.1
2017-09-07T13:00:28.520Z,3.1
2017-09-07T13:01:30.917Z,3.2
2017-09-07T13:02:33.317Z,3.1
2017-09-07T13:03:35.720Z,3.1
2017-09-07T13:04:38.129Z,3.1
2017-09-07T13:05:41.217Z,3.1
2017-09-07T13:06:43.624Z,3.2
2017-09-07T13:07:46.027Z,3.1
2017-09-07T13:08:48.432Z,3.2
2017-09-07T13:09:50.832Z,3.2
2017-09-07T13:10:53.232Z,3.1
2017-09-07T13:11:56.001Z,3.1
2017-09-07T13:12:58.377Z,3.1
2017-09-07T13:14:00.776Z,3.2
2017-09-07T13:15:03.181Z,3.2
2017-09-07T13:16:05.587Z,3.2
2017-09-07T13:17:07.992Z,3.2
2017-09-07T13:18:10.392Z,3.2
2017-09-07T13:19:12.797Z,3.2
2017-09-07T13:20:15.198Z,3.2
2017-09-07T13:21:17.599Z,3.2
2017-09-07T13:22:19.997Z,3.2
2017-09-07T13:23:22.399Z,3.3
2017-09-07T13:24:25.135Z,3.2
2017-09-07T13:25:27.542Z,3.3
2017-09-07T13:26:29.939Z,3.2
2017-09-07T13:27:32.358Z,3.2
2017-09-07T13:28:34.769Z,3.3
2017-09-07T13:29:37.179Z,3.3
2017-09-07T13:30:39.579Z,3.3
2017-09-07T13:31:41.992Z,3.3
2017-09-07T13:32:44.393Z,3.3
2017-09-07T13:33:46.793Z,3.3
2017-09-07T13:34:49.199Z,3.3
2017-09-07T13:35:51.601Z,3.2
2017-09-07T13:36:54.001Z,3.4
2017-09-07T13:37:56.407Z,3.4
2017-09-07T13:38:58.816Z,3.4
2017-09-07T13:40:01.562Z,3.4
2017-09-07T13:41:03.967Z,3.5
2017-09-07T13:42:06.367Z,3.5
2017-09-07T13:43:08.777Z,3.4
2017-09-07T13:44:11.179Z,3.5
2017-09-07T13:45:13.580Z,3.4
2017-09-07T13:46:15.981Z,3.7
2017-09-07T13:47:18.392Z,3.4
2017-09-07T13:48:20.792Z,3.4
2017-09-07T13:49:26.305Z,3.4
2017-09-07T13:50:29.118Z,3.4
2017-09-07T13:51:31.524Z,3.4
2017-09-07T13:52:33.926Z,3.4
2017-09-07T13:53:36.339Z,3.4
2017-09-07T13:54:39.104Z,3.5
2017-09-07T13:55:41.512Z,3.5
2017-09-07T13:56:43.914Z,3.5
2017-09-07T13:57:46.323Z,3.5
2017-09-07T13:58:48.721Z,3.5
2017-09-07T13:59:51.129Z,3.5
2017-09-07T14:00:53.527Z,3.4
2017-09-07T14:01:55.929Z,3.5
2017-09-07T14:02:58.333Z,3.5
2017-09-07T14:04:00.742Z,3.4
2017-09-07T14:05:03.157Z,3.5
2017-09-07T14:06:05.564Z,3.5
2017-09-07T14:07:08.313Z,3.4
2017-09-07T14:08:10.723Z,3.4
2017-09-07T14:09:13.133Z,3.5
2017-09-07T14:10:15.537Z,3.4
2017-09-07T14:11:17.939Z,3.3
2017-09-07T14:12:20.355Z,3.4
2017-09-07T14:13:22.764Z,3.3
2017-09-07T14:14:25.164Z,3.4
2017-09-07T14:15:27.573Z,3.4
2017-09-07T14:16:29.977Z,3.4
2017-09-07T14:17:32.382Z,3.3
2017-09-07T14:18:34.796Z,3.3
2017-09-07T14:19:37.539Z,3.3
2017-09-07T14:20:39.937Z,3.4
2017-09-07T14:21:42.347Z,3.4